Airfield :
LOGIN :

Register | Disclaimer

   EN    FR    IT 

 










Legend :    VFR   Marginal VFR   IFR   Intensive IFR   Very Intensive IFR
Visi :
Ceiling :
>= 8 km
>= 3000ft
5 to 8 km
1000 to 3000 ft
1500m to 5 km
500 to 1000 ft
800 to 1500m
200 to 500 ft
< 800m
< 200 ft
Symbols :   Thunderstorms  Fog  Heavy snow  Heavy precipitations  Wind > 20 kt
SIGMETs :     Misc.  Thunderstorms  Icing  Turbulence  Mountain Waves  Volcanic Ashes






- Airport Elevation : 55 ft
- IATA code : DSA


EGCN - Robin Hood Doncaster Sheffield

CURRENT METAR :
  • 170720Z 17007KT 8000 NSC 12/12 Q1014

EXPIRED METARs :
  • 170650Z 17004KT 9000 NSC 11/11 Q1014
  • 170620Z 17004KT 8000 NSC 10/10 Q1014
  • 170550Z 16004KT 9000 NSC 10/10 Q1013
  • 170520Z VRB03KT 9000 NSC 10/10 Q1013
  • 170450Z 17005KT 8000 NSC 10/10 Q1014

TAF TAF EGCN
Valid from the 17 at 06:00 until the 18 at 06:00 UTC


170455Z 1706/1806 19007KT 9999 FEW040
TEMPO 1706/1709 4000 BR
PROB40
TEMPO 1706/1708 0300 FG VV///
PROB30
TEMPO 1803/1806 5000 BR BKN010



MET'MAP, your aeronautical weather chart ! - Copyright ORBIFLY December 2007 - Disclaimer

ORBIFLY MET'MAP TEAM :

Programming & Development : Alexandra Zaïnal
Concept & original design : Baudouin d'Aumeries
Assistance for programming : Marc-Olivier Méhu
Technical & hardware support : Manuel Goepfert

Contact : metmap@orbifly.com




SOURCES & CREDITS :

   NOAA